Time;durP1;ratioP1;P1;durP2;ratioP2;P2;SDS_P1;SDS_P2;PMS_P1;PMS_P2;Temp;Humidity;BMP_temperature;BMP_pressure;BME280_temperature;BME280_humidity;BME280_pressure;Samples;Min_cycle;Max_cycle;Signal;HPM_P1;HPM_P2
2023/09/07 00:01:14;;;;;;;;;6.00;6.00;;;;;27.35;45.71;101178.53;4998093;28;47632;-76
2023/09/07 00:03:40;;;;;;;;;6.25;5.25;;;;;27.27;45.30;101167.41;4996079;28;45805;-76
2023/09/07 00:06:06;;;;;;;;;6.25;6.25;;;;;27.30;45.25;101169.03;4996857;28;45387;-76
2023/09/07 00:08:33;;;;;;;;;4.75;4.75;;;;;27.27;45.51;101163.81;4996502;28;46141;-76
2023/09/07 00:11:03;;;;;;;;;7.25;5.50;;;;;27.15;45.13;101149.44;4987499;28;45539;-76
2023/09/07 00:13:29;;;;;;;;;5.75;4.50;;;;;27.18;44.67;101173.78;4999241;28;45531;-76
2023/09/07 00:15:58;;;;;;;;;6.00;6.00;;;;;27.17;45.28;101169.31;4999040;28;45624;-76
2023/09/07 00:18:23;;;;;;;;;6.25;6.25;;;;;27.13;45.13;101160.53;4997128;28;45653;-76
2023/09/07 00:20:49;;;;;;;;;7.00;6.25;;;;;27.13;45.02;101156.91;4987784;28;56295;-76
2023/09/07 00:23:14;;;;;;;;;5.50;5.50;;;;;27.11;44.89;101157.06;4997069;28;45652;-76
2023/09/07 00:25:39;;;;;;;;;7.50;6.75;;;;;27.08;45.19;101154.66;4995951;28;50256;-76
2023/09/07 00:28:05;;;;;;;;;6.25;6.25;;;;;27.06;44.80;101155.78;4998790;28;50466;-76
2023/09/07 00:30:30;;;;;;;;;6.50;6.00;;;;;26.98;45.15;101151.91;4992840;28;58580;-76
2023/09/07 00:32:55;;;;;;;;;3.25;3.25;;;;;26.97;45.07;101143.84;4986417;28;45405;-76
2023/09/07 00:35:21;;;;;;;;;4.00;3.75;;;;;26.95;44.87;101144.00;4982308;28;45331;-76
2023/09/07 00:37:46;;;;;;;;;6.00;5.00;;;;;26.88;45.15;101137.38;4979171;28;45442;-76
2023/09/07 00:40:11;;;;;;;;;5.00;5.00;;;;;26.93;45.07;101159.72;4991101;28;45596;-76
2023/09/07 00:42:37;;;;;;;;;5.50;5.50;;;;;26.86;45.02;101150.34;4989289;28;45393;-76
2023/09/07 00:45:02;;;;;;;;;5.75;5.50;;;;;26.89;44.82;101160.16;4991223;28;45956;-76
2023/09/07 00:47:28;;;;;;;;;5.25;5.25;;;;;26.80;44.92;101151.78;4997093;28;45529;-76
2023/09/07 00:49:54;;;;;;;;;5.25;4.25;;;;;26.89;44.97;101158.25;4996430;28;45364;-76
2023/09/07 00:52:20;;;;;;;;;5.50;5.50;;;;;26.85;44.85;101151.38;4997581;28;45423;-76
2023/09/07 00:54:46;;;;;;;;;6.50;4.00;;;;;26.84;45.04;101152.34;4998551;28;45449;-76
2023/09/07 00:57:11;;;;;;;;;6.50;5.25;;;;;26.84;44.84;101151.50;4998560;28;45300;-75
2023/09/07 00:59:36;;;;;;;;;5.75;5.25;;;;;26.82;45.21;101159.88;4997794;28;45392;-76
2023/09/07 01:02:05;;;;;;;;;5.75;5.75;;;;;26.79;45.14;101155.53;4996008;28;45419;-76
2023/09/07 01:04:30;;;;;;;;;6.00;6.00;;;;;26.76;45.41;101147.63;4998508;28;45419;-76
2023/09/07 01:07:00;;;;;;;;;7.00;7.00;;;;;26.75;45.13;101145.88;5000136;28;46353;-76
2023/09/07 01:09:30;;;;;;;;;6.00;5.00;;;;;26.73;44.92;101144.28;5000954;28;45375;-76
2023/09/07 01:11:56;;;;;;;;;6.50;5.25;;;;;26.68;45.20;101132.91;5002164;28;45419;-76
2023/09/07 01:14:22;;;;;;;;;6.00;6.00;;;;;26.73;45.43;101147.91;5001749;28;45501;-76
2023/09/07 01:16:48;;;;;;;;;6.00;4.75;;;;;26.66;45.77;101133.06;4998543;28;46177;-76
2023/09/07 01:19:13;;;;;;;;;5.00;4.25;;;;;26.69;45.64;101142.88;5000393;28;45729;-76
2023/09/07 01:21:39;;;;;;;;;3.00;3.00;;;;;26.65;46.13;101138.69;5001742;28;45312;-76
2023/09/07 01:24:08;;;;;;;;;6.00;6.00;;;;;26.60;46.10;101153.66;5000524;28;45379;-76
2023/09/07 01:26:34;;;;;;;;;6.00;5.00;;;;;26.54;45.86;101146.00;4993703;28;48452;-76
2023/09/07 01:29:01;;;;;;;;;5.25;5.25;;;;;26.54;46.30;101142.41;4999340;28;45459;-76
2023/09/07 01:31:26;;;;;;;;;5.25;5.25;;;;;26.46;46.18;101140.38;4999873;28;45334;-76
2023/09/07 01:33:51;;;;;;;;;5.75;5.75;;;;;26.46;46.67;101142.25;4995986;28;45531;-77
2023/09/07 01:36:17;;;;;;;;;5.50;5.50;;;;;26.36;46.40;101134.94;4997706;28;46124;-75
2023/09/07 01:38:42;;;;;;;;;5.25;5.25;;;;;26.37;46.40;101142.09;5001545;28;45316;-75
2023/09/07 01:41:07;;;;;;;;;6.25;6.00;;;;;26.36;45.95;101134.94;5000824;28;45666;-75
2023/09/07 01:43:33;;;;;;;;;8.50;6.00;;;;;26.39;46.08;101133.75;5001168;28;49835;-75
2023/09/07 01:45:58;;;;;;;;;6.50;6.50;;;;;26.36;45.93;101137.66;4999752;28;45518;-76
2023/09/07 01:48:23;;;;;;;;;5.00;5.00;;;;;26.31;45.90;101129.03;5000939;28;45387;-76
2023/09/07 01:50:55;;;;;;;;;6.50;5.75;;;;;26.32;46.86;101133.47;4999930;28;45451;-75
2023/09/07 01:53:20;;;;;;;;;6.50;6.50;;;;;26.25;46.45;101118.63;5001117;28;45517;-76
2023/09/07 01:55:45;;;;;;;;;7.50;6.25;;;;;26.24;46.91;101134.19;5000967;28;45569;-76
2023/09/07 01:58:11;;;;;;;;;6.00;6.00;;;;;26.25;46.70;101144.13;5000246;28;54605;-76
2023/09/07 02:00:38;;;;;;;;;6.00;6.00;;;;;26.14;47.11;101119.63;5000430;28;45248;-75
2023/09/07 02:03:04;;;;;;;;;7.00;6.25;;;;;26.13;47.21;101128.84;4998074;28;45533;-76
2023/09/07 02:05:30;;;;;;;;;4.75;4.75;;;;;26.13;47.38;101134.31;4995592;28;47337;-75
2023/09/07 02:07:55;;;;;;;;;6.50;6.50;;;;;26.10;47.57;101133.75;4999034;28;45758;-76
2023/09/07 02:10:20;;;;;;;;;5.25;5.25;;;;;26.07;47.11;101126.66;5000347;28;45514;-76
2023/09/07 02:12:46;;;;;;;;;7.50;7.50;;;;;26.04;47.51;101132.41;4999853;28;57347;-75
2023/09/07 02:15:11;;;;;;;;;7.25;7.00;;;;;25.96;47.20;101121.31;4998629;28;46671;-75
2023/09/07 02:17:37;;;;;;;;;5.25;5.00;;;;;25.92;47.82;101122.59;4999852;28;45540;-76
2023/09/07 02:20:08;;;;;;;;;6.00;6.00;;;;;25.91;47.93;101129.94;4999996;28;45530;-75
2023/09/07 02:22:33;;;;;;;;;7.00;6.00;;;;;25.81;47.25;101118.97;4999276;28;45580;-75
2023/09/07 02:24:59;;;;;;;;;6.00;6.00;;;;;25.78;47.70;101121.97;5000412;28;56436;-76
2023/09/07 02:27:24;;;;;;;;;7.50;7.50;;;;;25.79;47.81;101128.28;4999691;28;56633;-76
2023/09/07 02:29:49;;;;;;;;;6.75;6.75;;;;;25.72;48.08;101122.53;4999555;28;56312;-75
2023/09/07 02:32:14;;;;;;;;;7.00;7.00;;;;;25.66;47.63;101114.88;5000455;28;45367;-75
2023/09/07 02:34:40;;;;;;;;;7.00;5.50;;;;;25.66;47.99;101125.78;4997880;28;46460;-76
2023/09/07 02:37:05;;;;;;;;;7.00;7.00;;;;;25.59;48.47;101116.44;4998169;28;45426;-76
2023/09/07 02:39:31;;;;;;;;;6.25;5.50;;;;;25.58;48.89;101123.78;4996306;28;45483;-76
2023/09/07 02:41:56;;;;;;;;;7.00;7.00;;;;;25.52;48.95;101116.13;4998909;28;45297;-76
2023/09/07 02:44:21;;;;;;;;;7.25;6.00;;;;;25.54;49.06;101125.03;4998600;28;45526;-75
2023/09/07 02:46:47;;;;;;;;;8.00;7.00;;;;;25.52;48.95;101116.13;5000165;28;46786;-75
2023/09/07 02:49:12;;;;;;;;;7.75;7.00;;;;;25.55;49.62;101126.78;4999207;28;45571;-75
2023/09/07 02:51:38;;;;;;;;;8.00;5.75;;;;;25.51;49.98;101131.66;5000485;28;45350;-76
2023/09/07 02:54:05;;;;;;;;;7.00;7.00;;;;;25.50;50.02;101127.19;4998442;28;45933;-76
2023/09/07 02:56:30;;;;;;;;;6.75;6.75;;;;;25.47;50.33;101122.00;5000100;28;45341;-75
2023/09/07 02:58:56;;;;;;;;;7.50;5.50;;;;;25.48;49.76;101126.47;5000294;28;45282;-75
2023/09/07 03:01:22;;;;;;;;;6.25;6.25;;;;;25.44;50.04;101127.75;4997082;28;45257;-76
2023/09/07 03:03:48;;;;;;;;;5.75;5.75;;;;;25.38;50.71;101119.25;4995905;28;46077;-76
2023/09/07 03:06:16;;;;;;;;;6.75;6.75;;;;;25.33;50.74;101111.44;4999675;28;45355;-76
2023/09/07 03:08:41;;;;;;;;;5.25;5.25;;;;;25.37;50.51;101117.50;4992048;28;47038;-76
2023/09/07 03:11:07;;;;;;;;;6.50;6.00;;;;;25.29;50.62;101110.88;4994034;28;45735;-76
2023/09/07 03:13:33;;;;;;;;;7.25;7.25;;;;;25.30;50.40;101115.31;4998229;28;45355;-76
2023/09/07 03:15:59;;;;;;;;;7.25;6.50;;;;;25.29;50.51;101116.31;4999338;28;45332;-75
2023/09/07 03:18:24;;;;;;;;;7.75;7.75;;;;;25.27;51.09;101117.44;4997758;28;45451;-75
2023/09/07 03:20:50;;;;;;;;;8.00;7.50;;;;;25.24;51.13;101117.69;4996557;28;45332;-76
2023/09/07 03:23:16;;;;;;;;;5.75;5.75;;;;;25.23;51.39;101118.72;4997472;28;46449;-76
2023/09/07 03:25:41;;;;;;;;;8.00;8.00;;;;;25.13;51.51;101105.84;4985980;28;45837;-76
2023/09/07 03:28:06;;;;;;;;;6.50;6.50;;;;;25.17;51.21;101117.38;4994975;28;45305;-75
2023/09/07 03:30:33;;;;;;;;;7.75;7.00;;;;;25.08;50.98;101105.41;4998262;28;45467;-76
2023/09/07 03:32:58;;;;;;;;;10.25;9.50;;;;;25.15;51.59;101117.50;4997019;28;46318;-76
2023/09/07 03:35:23;;;;;;;;;7.00;7.00;;;;;25.05;51.59;101107.53;4997980;28;45415;-76
2023/09/07 03:37:49;;;;;;;;;7.75;6.00;;;;;25.06;51.79;101120.16;4988594;28;45304;-76
2023/09/07 03:40:14;;;;;;;;;8.00;8.00;;;;;25.03;51.76;101117.72;4997144;28;45430;-75
2023/09/07 03:42:40;;;;;;;;;6.75;6.50;;;;;24.93;51.68;101110.34;4995975;28;47302;-76
2023/09/07 03:45:05;;;;;;;;;9.00;8.25;;;;;24.91;52.01;101115.06;4999691;28;45487;-75
2023/09/07 03:47:31;;;;;;;;;8.00;8.00;;;;;24.82;52.02;101104.09;4998980;28;45434;-76
2023/09/07 03:50:00;;;;;;;;;8.75;8.00;;;;;24.83;51.47;101120.34;4997528;28;45626;-75
2023/09/07 03:52:26;;;;;;;;;7.75;7.00;;;;;24.81;51.90;101116.00;4986903;28;46118;-76
2023/09/07 03:54:53;;;;;;;;;9.75;9.75;;;;;24.78;52.13;101122.59;4998417;28;45507;-76
2023/09/07 03:57:19;;;;;;;;;8.50;8.50;;;;;24.76;52.14;101124.59;4994872;28;45383;-76
2023/09/07 03:59:45;;;;;;;;;6.75;6.75;;;;;24.69;52.56;101118.81;4995506;28;45573;-76
2023/09/07 04:02:12;;;;;;;;;8.75;8.00;;;;;24.69;52.45;101127.00;4999081;28;46304;-76
2023/09/07 04:04:37;;;;;;;;;7.50;7.00;;;;;24.67;53.06;101125.38;4998686;28;45420;-76
2023/09/07 04:07:03;;;;;;;;;8.75;7.50;;;;;24.54;52.77;101106.41;4998137;28;45335;-75
2023/09/07 04:09:28;;;;;;;;;8.00;8.00;;;;;24.65;52.56;101125.50;4998428;28;46443;-76
2023/09/07 04:11:54;;;;;;;;;10.25;9.25;;;;;24.59;52.75;101118.72;4998137;28;47886;-76
2023/09/07 04:14:19;;;;;;;;;12.50;8.50;;;;;24.56;52.86;101120.84;4998815;28;52820;-75
2023/09/07 04:16:44;;;;;;;;;7.75;7.25;;;;;24.55;53.10;101119.97;4996753;28;45431;-76
2023/09/07 04:19:09;;;;;;;;;7.75;7.00;;;;;24.55;53.27;101130.88;4998733;28;50400;-75
2023/09/07 04:21:36;;;;;;;;;8.75;8.25;;;;;24.48;52.62;101124.19;4998296;28;45434;-76
2023/09/07 04:24:02;;;;;;;;;9.75;9.75;;;;;24.39;52.63;101116.78;4997701;28;45598;-75
2023/09/07 04:26:27;;;;;;;;;11.50;8.00;;;;;24.36;52.87;101112.47;4991689;28;45389;-76
2023/09/07 04:28:52;;;;;;;;;7.50;7.50;;;;;24.35;53.14;101126.25;4997482;28;48480;-76
2023/09/07 04:31:18;;;;;;;;;9.00;9.00;;;;;24.29;53.33;101124.91;4996475;28;46954;-76
2023/09/07 04:33:43;;;;;;;;;6.50;6.50;;;;;24.28;53.52;101123.16;4996447;28;45538;-76
2023/09/07 04:36:14;;;;;;;;;9.00;9.00;;;;;24.27;53.91;101120.56;4996198;28;45643;-76
2023/09/07 04:38:40;;;;;;;;;10.00;10.00;;;;;24.27;54.04;101109.66;4998858;28;45463;-76
2023/09/07 04:41:11;;;;;;;;;8.50;8.50;;;;;24.27;53.49;101112.38;4996991;28;45336;-76
2023/09/07 04:43:38;;;;;;;;;8.75;8.50;;;;;24.28;54.12;101114.97;5001197;28;45324;-76
2023/09/07 04:46:04;;;;;;;;;9.00;9.00;;;;;24.22;54.37;101112.75;4999185;28;45316;-76
2023/09/07 04:48:29;;;;;;;;;12.25;8.75;;;;;24.25;53.99;101117.97;4995308;28;45704;-76
2023/09/07 04:51:03;;;;;;;;;9.25;9.25;;;;;24.20;54.59;101115.63;4999948;28;46652;-76
2023/09/07 04:53:30;;;;;;;;;6.75;6.50;;;;;24.25;54.16;101126.16;5000723;28;45440;-76
2023/09/07 04:55:55;;;;;;;;;9.50;8.75;;;;;24.22;54.45;101123.66;4985027;28;46589;-75
2023/09/07 04:58:21;;;;;;;;;10.75;10.00;;;;;24.21;54.36;101125.53;4982366;28;45525;-76
2023/09/07 05:00:46;;;;;;;;;8.25;8.00;;;;;24.16;54.49;101116.03;4998577;28;45866;-76
2023/09/07 05:03:12;;;;;;;;;9.25;9.25;;;;;24.13;54.49;101116.28;4998600;28;45856;-75
2023/09/07 05:05:38;;;;;;;;;9.75;9.00;;;;;24.16;54.43;101124.22;4998537;28;48110;-76
2023/09/07 05:08:04;;;;;;;;;10.25;9.00;;;;;24.16;54.42;101126.94;4999148;28;45490;-76
2023/09/07 05:10:32;;;;;;;;;11.75;11.25;;;;;24.11;54.58;101121.00;5000747;28;45567;-76
2023/09/07 05:12:57;;;;;;;;;11.75;10.50;;;;;24.19;54.69;101134.84;5001879;28;45466;-76
2023/09/07 05:15:23;;;;;;;;;8.00;8.00;;;;;24.10;54.67;101121.97;5000860;28;45319;-76
2023/09/07 05:17:48;;;;;;;;;9.00;9.00;;;;;24.14;54.41;101137.09;5001376;28;48926;-76
2023/09/07 05:20:13;;;;;;;;;9.50;9.50;;;;;24.16;54.64;101146.88;4997517;28;57973;-76
2023/09/07 05:22:40;;;;;;;;;11.00;10.75;;;;;24.12;54.92;101134.47;4999417;28;45423;-76
2023/09/07 05:25:06;;;;;;;;;10.75;10.00;;;;;24.09;54.91;101136.59;4998928;28;45496;-76
2023/09/07 05:27:33;;;;;;;;;10.00;9.75;;;;;24.10;55.08;101138.34;5000331;28;45629;-76
2023/09/07 05:29:58;;;;;;;;;11.50;11.50;;;;;24.09;55.35;101132.03;4998906;28;46395;-76
2023/09/07 05:32:24;;;;;;;;;12.25;10.50;;;;;24.09;55.07;101142.94;5000831;28;58057;-76
2023/09/07 05:34:49;;;;;;;;;12.00;11.25;;;;;24.07;55.21;101147.63;5000605;28;47620;-76
2023/09/07 05:37:14;;;;;;;;;10.00;8.75;;;;;24.05;55.21;101146.91;4999735;28;46496;-76
2023/09/07 05:39:39;;;;;;;;;10.75;10.00;;;;;24.04;55.29;101146.03;4994436;28;60587;-76
2023/09/07 05:42:05;;;;;;;;;11.25;9.75;;;;;24.04;55.11;101150.66;4999192;28;45530;-75
2023/09/07 05:44:30;;;;;;;;;12.00;11.00;;;;;23.99;55.48;101147.41;4995658;28;45596;-75
2023/09/07 05:46:55;;;;;;;;;8.75;6.00;;;;;23.99;55.31;101151.03;4998313;28;45971;-71
2023/09/07 05:49:21;;;;;;;;;10.50;8.25;;;;;23.89;55.36;101135.53;4996062;28;45502;-74
2023/09/07 05:51:46;;;;;;;;;6.50;6.50;;;;;23.91;55.16;101142.59;5001157;28;45359;-74
2023/09/07 05:54:12;;;;;;;;;15.00;13.00;;;;;23.93;55.58;101143.34;5000367;28;45347;-74
2023/09/07 05:56:37;;;;;;;;;13.75;13.25;;;;;23.88;55.66;101145.56;4999438;28;45517;-74
2023/09/07 05:59:02;;;;;;;;;10.75;9.25;;;;;23.89;55.77;101144.59;4999828;28;45454;-75
2023/09/07 06:01:27;;;;;;;;;11.75;11.25;;;;;23.76;55.89;101130.22;4999333;28;45864;-75
2023/09/07 06:03:53;;;;;;;;;13.75;12.25;;;;;23.83;55.69;101145.94;4993220;28;45390;-75
2023/09/07 06:06:19;;;;;;;;;11.00;11.00;;;;;23.75;55.50;101151.13;4998496;28;45381;-75
2023/09/07 06:08:44;;;;;;;;;13.00;12.00;;;;;23.82;55.69;101159.69;5000740;28;45369;-75
2023/09/07 06:11:10;;;;;;;;;11.50;11.50;;;;;23.76;55.59;101150.16;4999530;28;45418;-75
2023/09/07 06:13:35;;;;;;;;;9.25;8.25;;;;;23.79;56.28;101160.81;4999140;28;45394;-77
2023/09/07 06:16:01;;;;;;;;;14.00;12.50;;;;;23.75;56.46;101150.28;4999012;28;45465;-77
2023/09/07 06:18:26;;;;;;;;;8.25;6.50;;;;;23.68;56.42;101145.31;4983862;28;47140;-78
2023/09/07 06:20:52;;;;;;;;;14.50;12.25;;;;;23.75;56.24;101166.63;5000533;28;45320;-77
2023/09/07 06:23:17;;;;;;;;;9.25;9.25;;;;;23.62;56.58;101145.84;5000919;28;46574;-78
2023/09/07 06:25:42;;;;;;;;;10.50;10.50;;;;;23.65;56.73;101147.41;4996289;28;45299;-79
2023/09/07 06:28:08;;;;;;;;;10.25;10.25;;;;;23.68;56.83;101145.31;5000178;28;51778;-78
2023/09/07 06:30:33;;;;;;;;;11.75;11.00;;;;;23.76;56.58;101165.66;4998722;28;45657;-77
2023/09/07 06:32:59;;;;;;;;;12.75;12.00;;;;;23.77;55.86;101157.34;4991253;28;45718;-77
2023/09/07 06:35:25;;;;;;;;;9.25;9.25;;;;;23.63;56.27;101139.38;4993270;28;45574;-77
2023/09/07 06:37:50;;;;;;;;;8.25;8.25;;;;;23.74;56.11;101162.16;4981126;28;47964;-76
2023/09/07 06:40:17;;;;;;;;;9.00;9.00;;;;;23.66;56.33;101155.47;4987973;28;45656;-75
2023/09/07 06:42:43;;;;;;;;;9.00;9.00;;;;;23.71;55.71;101166.00;4992377;28;45485;-75
2023/09/07 06:45:09;;;;;;;;;10.25;8.25;;;;;23.46;55.82;101127.13;4990886;28;45478;-76
2023/09/07 06:47:34;;;;;;;;;11.75;11.75;;;;;23.49;55.91;101142.38;4988079;28;46356;-75
2023/09/07 06:50:02;;;;;;;;;12.50;10.25;;;;;23.56;55.79;101165.41;4987932;28;47972;-75
2023/09/07 06:52:27;;;;;;;;;9.25;8.25;;;;;23.42;56.27;101147.44;4992729;28;45443;-77
2023/09/07 06:54:53;;;;;;;;;11.50;11.50;;;;;23.51;56.85;101167.63;5012177;28;45471;-77
2023/09/07 06:57:19;;;;;;;;;11.00;10.25;;;;;23.58;56.44;101182.47;5000261;28;46147;-76
2023/09/07 06:59:44;;;;;;;;;11.00;11.00;;;;;23.56;56.44;101167.25;4995475;28;45532;-77
2023/09/07 07:02:10;;;;;;;;;12.00;12.00;;;;;23.52;56.41;101160.31;4998226;28;45489;-78
2023/09/07 07:04:35;;;;;;;;;11.75;11.75;;;;;23.57;57.21;101161.69;4992867;28;45467;-75
2023/09/07 07:07:04;;;;;;;;;12.75;11.00;;;;;23.55;55.92;101171.81;4990906;28;45617;-75
2023/09/07 07:09:33;;;;;;;;;11.75;11.75;;;;;23.41;56.34;101142.97;4996698;28;45479;-75
2023/09/07 07:12:00;;;;;;;;;12.25;11.00;;;;;23.52;56.15;101166.63;4992684;28;45893;-75
2023/09/07 07:14:26;;;;;;;;;11.00;11.00;;;;;23.55;56.21;101171.81;4975886;28;45678;-75
2023/09/07 07:16:51;;;;;;;;;8.25;8.25;;;;;23.46;56.26;101158.97;4993004;28;45466;-74
2023/09/07 07:19:17;;;;;;;;;12.25;11.25;;;;;23.51;56.45;101164.91;4985784;28;45609;-75
2023/09/07 07:21:42;;;;;;;;;12.75;9.00;;;;;23.58;56.95;101174.31;4992301;28;45594;-75
2023/09/07 07:24:07;;;;;;;;;13.25;13.25;;;;;23.42;56.80;101142.00;4993550;28;45624;-75
2023/09/07 07:26:33;;;;;;;;;11.75;11.75;;;;;23.46;56.40;101140.75;4996278;28;45975;-74
2023/09/07 07:28:58;;;;;;;;;13.25;12.25;;;;;23.57;57.10;101156.25;4996486;28;45498;-75
2023/09/07 07:31:24;;;;;;;;;14.00;10.75;;;;;23.67;56.72;101167.22;4986031;28;45538;-75
2023/09/07 07:33:49;;;;;;;;;11.50;11.50;;;;;23.71;57.05;101156.97;4987069;28;45368;-71
2023/09/07 07:36:15;;;;;;;;;10.75;10.25;;;;;23.82;56.63;101181.50;4995308;28;46012;-73
2023/09/07 07:38:40;;;;;;;;;11.25;10.00;;;;;23.80;56.83;101158.94;4994058;28;46095;-71
2023/09/07 07:41:06;;;;;;;;;12.25;9.25;;;;;23.93;56.77;101169.75;4989428;28;45428;-71
2023/09/07 07:43:32;;;;;;;;;10.00;10.00;;;;;23.95;57.23;101168.59;4986050;28;45631;-72
2023/09/07 07:45:59;;;;;;;;;11.25;10.25;;;;;23.95;56.19;101165.88;4992840;28;47285;-72
2023/09/07 07:48:24;;;;;;;;;13.00;11.75;;;;;24.01;56.16;101164.53;4992165;28;45414;-69
2023/09/07 07:50:50;;;;;;;;;12.00;11.50;;;;;24.10;56.35;101180.09;4988170;28;45617;-68
2023/09/07 07:53:15;;;;;;;;;15.75;11.00;;;;;24.11;56.28;101173.69;4990484;28;47177;-68
2023/09/07 07:55:41;;;;;;;;;9.00;8.75;;;;;24.15;55.88;101171.56;5004015;28;47332;-68
2023/09/07 07:58:07;;;;;;;;;13.50;13.50;;;;;24.16;56.17;101159.66;4997348;28;45510;-68
2023/09/07 08:00:35;;;;;;;;;12.25;11.75;;;;;24.15;56.00;101156.03;4989922;28;45541;-68
2023/09/07 08:03:05;;;;;;;;;15.25;14.25;;;;;24.25;56.81;101175.25;4992346;28;45527;-68
2023/09/07 08:05:31;;;;;;;;;13.25;12.75;;;;;24.15;56.00;101147.00;4994014;28;46482;-68
2023/09/07 08:07:57;;;;;;;;;11.25;10.00;;;;;24.16;56.24;101157.78;4991615;28;46146;-69
2023/09/07 08:10:22;;;;;;;;;12.00;10.00;;;;;24.36;56.23;101177.94;4992307;28;45565;-68
2023/09/07 08:12:48;;;;;;;;;16.25;15.25;;;;;24.21;56.74;101149.22;5000549;28;45538;-68
2023/09/07 08:15:14;;;;;;;;;16.50;16.50;;;;;24.38;56.08;101165.03;4996492;28;46914;-69
2023/09/07 08:17:40;;;;;;;;;13.75;12.25;;;;;24.35;56.79;101156.25;4991680;28;45488;-68
2023/09/07 08:20:07;;;;;;;;;10.75;9.50;;;;;24.32;56.44;101141.00;4983295;28;45431;-68
2023/09/07 08:22:36;;;;;;;;;14.75;13.75;;;;;24.45;56.79;101156.34;4990975;28;45552;-68
2023/09/07 08:25:01;;;;;;;;;12.00;11.00;;;;;24.59;56.41;101180.59;4988107;28;46795;-68
2023/09/07 08:27:27;;;;;;;;;12.25;12.00;;;;;24.54;56.04;101161.88;4986582;28;45446;-68
2023/09/07 08:29:53;;;;;;;;;11.75;9.50;;;;;24.48;56.62;101142.44;5001271;28;46935;-68
2023/09/07 08:32:18;;;;;;;;;13.00;13.00;;;;;24.51;56.71;101143.03;4990410;28;45502;-68
2023/09/07 08:34:44;;;;;;;;;13.25;13.25;;;;;24.73;56.60;101163.94;4988931;28;47142;-68
2023/09/07 08:37:09;;;;;;;;;18.50;16.75;;;;;24.80;56.39;101169.72;4992152;28;45394;-68
2023/09/07 08:39:36;;;;;;;;;14.00;12.25;;;;;24.81;55.80;101176.94;4990002;28;45845;-68
2023/09/07 08:42:02;;;;;;;;;11.00;11.00;;;;;24.76;56.08;101158.22;4993451;28;45451;-68
2023/09/07 08:44:29;;;;;;;;;14.50;13.00;;;;;24.84;56.16;101160.31;4985311;28;45449;-68
2023/09/07 08:46:55;;;;;;;;;13.25;11.50;;;;;24.77;55.50;101140.84;4993789;28;45427;-68
2023/09/07 08:49:23;;;;;;;;;13.75;13.75;;;;;24.90;55.44;101151.56;4993069;28;48013;-68
2023/09/07 08:51:49;;;;;;;;;14.25;12.25;;;;;25.04;56.16;101163.13;4989704;28;45743;-68
2023/09/07 08:54:14;;;;;;;;;14.25;13.75;;;;;24.93;55.82;101134.91;4982316;28;45558;-68
2023/09/07 08:56:40;;;;;;;;;13.00;11.50;;;;;25.00;55.95;101135.25;5000678;28;45997;-68
2023/09/07 08:59:05;;;;;;;;;10.00;10.00;;;;;25.06;55.88;101131.97;4993295;28;45474;-68
2023/09/07 09:01:31;;;;;;;;;15.50;13.75;;;;;25.24;56.06;101155.94;4986657;28;45673;-68
2023/09/07 09:03:58;;;;;;;;;14.00;13.25;;;;;25.20;55.57;101138.94;4987431;28;45669;-69
2023/09/07 09:06:24;;;;;;;;;13.50;12.75;;;;;25.35;55.11;101152.31;4981645;28;46145;-69
2023/09/07 09:08:54;;;;;;;;;13.25;13.25;;;;;25.21;55.27;101127.03;4978288;28;45533;-68
2023/09/07 09:11:21;;;;;;;;;12.75;11.00;;;;;25.37;54.81;101136.63;4989688;28;45526;-68
2023/09/07 09:13:47;;;;;;;;;14.75;12.50;;;;;25.46;55.04;101144.88;4991093;28;47478;-68
2023/09/07 09:16:13;;;;;;;;;14.25;12.75;;;;;25.47;54.72;101140.25;4989534;28;45348;-68
2023/09/07 09:18:57;;;;;;;;;13.50;13.50;;;;;25.33;54.48;101120.50;4994655;28;45452;-69
2023/09/07 09:21:24;;;;;;;;;14.25;14.25;;;;;25.39;54.21;101130.00;4983298;28;45611;-68
2023/09/07 09:23:52;;;;;;;;;14.00;11.25;;;;;25.41;53.66;101130.75;4989646;28;47445;-68
2023/09/07 09:26:18;;;;;;;;;12.25;12.25;;;;;25.41;53.84;101128.03;4988188;28;45589;-68
2023/09/07 09:28:47;;;;;;;;;11.50;11.50;;;;;25.58;54.10;101142.06;4994613;28;45535;-68
2023/09/07 09:31:13;;;;;;;;;12.50;12.50;;;;;25.52;54.00;101133.38;4994446;28;46825;-68
2023/09/07 09:33:40;;;;;;;;;12.25;11.50;;;;;25.42;53.76;101118.81;4993605;28;46403;-69
2023/09/07 09:36:06;;;;;;;;;13.75;11.00;;;;;25.76;54.07;101161.38;4995923;28;45458;-69
2023/09/07 09:38:33;;;;;;;;;12.00;12.00;;;;;25.77;53.40;101155.78;4998820;28;46049;-68
2023/09/07 09:40:59;;;;;;;;;15.00;13.75;;;;;25.84;54.17;101165.19;4988245;28;45425;-68
2023/09/07 09:43:26;;;;;;;;;13.50;13.25;;;;;25.87;53.45;101159.41;4992466;28;47126;-68
2023/09/07 09:45:52;;;;;;;;;13.75;13.00;;;;;25.74;53.88;101125.97;4992912;28;45677;-68
2023/09/07 09:48:21;;;;;;;;;12.25;11.75;;;;;25.97;53.46;101158.59;4997547;28;45809;-68
2023/09/07 09:50:48;;;;;;;;;12.00;12.00;;;;;25.86;53.46;101135.81;4985322;28;45681;-68
2023/09/07 09:53:20;;;;;;;;;15.00;14.25;;;;;26.04;53.26;101141.50;4994800;28;48372;-68
2023/09/07 09:55:46;;;;;;;;;12.00;11.25;;;;;25.89;53.72;101107.31;5010932;28;45737;-68
2023/09/07 09:58:16;;;;;;;;;11.25;11.25;;;;;26.17;53.52;101138.47;4993663;28;46517;-69
2023/09/07 10:00:47;;;;;;;;;13.00;12.75;;;;;26.33;53.13;101156.22;4991103;28;45650;-67
2023/09/07 10:03:28;;;;;;;;;14.25;10.75;;;;;26.33;52.49;101150.75;4990619;28;46603;-67
2023/09/07 10:05:53;;;;;;;;;11.25;11.25;;;;;26.22;53.21;101133.44;4988238;28;45604;-67
2023/09/07 10:08:22;;;;;;;;;12.75;11.75;;;;;26.43;52.93;101152.50;4997881;28;46057;-67
2023/09/07 10:10:49;;;;;;;;;15.25;15.25;;;;;26.50;52.92;101154.66;4988592;28;45475;-69
2023/09/07 10:13:15;;;;;;;;;15.50;14.50;;;;;26.38;52.26;101129.28;4991084;28;47563;-70
2023/09/07 10:15:41;;;;;;;;;12.50;11.25;;;;;26.55;52.36;101158.69;4992398;28;45410;-68
2023/09/07 10:18:11;;;;;;;;;14.25;13.00;;;;;26.59;52.01;101146.44;4997216;28;45464;-68
2023/09/07 10:20:59;;;;;;;;;14.25;13.00;;;;;26.58;51.56;101141.97;4993748;28;45872;-68
2023/09/07 10:23:42;;;;;;;;;14.25;13.00;;;;;26.67;51.86;101153.09;4984075;28;46576;-68
2023/09/07 10:26:17;;;;;;;;;12.00;12.00;;;;;26.48;52.03;101113.75;4989924;28;45563;-68
2023/09/07 10:28:44;;;;;;;;;15.50;12.75;;;;;26.73;52.28;101147.03;4990622;28;45596;-68
2023/09/07 10:31:18;;;;;;;;;11.25;10.50;;;;;26.72;52.03;101137.09;4983947;28;45604;-68
2023/09/07 10:33:43;;;;;;;;;13.00;11.50;;;;;26.80;51.87;101137.25;4993337;28;45483;-68
2023/09/07 10:36:20;;;;;;;;;13.25;13.00;;;;;26.79;52.15;101125.41;4995631;28;45610;-69
2023/09/07 10:38:46;;;;;;;;;14.25;9.00;;;;;26.92;52.01;101138.81;4987307;28;45719;-68
2023/09/07 10:41:12;;;;;;;;;14.25;12.25;;;;;26.97;51.57;101141.09;4996421;28;45762;-68
2023/09/07 10:43:47;;;;;;;;;12.00;12.00;;;;;27.01;51.32;101133.44;4998515;28;45565;-69
2023/09/07 10:46:13;;;;;;;;;14.00;11.00;;;;;27.08;52.30;101149.16;4996068;28;45626;-68
2023/09/07 10:48:38;;;;;;;;;13.50;12.00;;;;;27.10;51.60;101124.38;5013820;28;45548;-68
2023/09/07 10:51:04;;;;;;;;;11.75;11.75;;;;;27.12;51.57;101119.59;4993633;28;45542;-68
2023/09/07 10:53:31;;;;;;;;;13.50;12.00;;;;;27.27;51.15;101130.94;4994480;28;46970;-69
2023/09/07 10:55:59;;;;;;;;;15.25;13.25;;;;;27.30;51.10;101119.72;4994059;28;45755;-68
2023/09/07 10:58:30;;;;;;;;;13.25;12.75;;;;;27.27;51.13;101117.25;4997444;28;45270;-68
2023/09/07 11:00:56;;;;;;;;;12.50;12.00;;;;;27.37;51.35;101133.69;5004425;28;46052;-68
2023/09/07 11:03:21;;;;;;;;;13.25;11.25;;;;;27.43;51.45;101122.97;4996429;28;45931;-68
2023/09/07 11:05:50;;;;;;;;;14.50;10.25;;;;;27.53;51.08;101132.03;4994253;28;45664;-68
2023/09/07 11:08:15;;;;;;;;;11.75;10.75;;;;;27.50;51.03;101104.06;5011719;28;45435;-69
2023/09/07 11:10:42;;;;;;;;;15.00;11.00;;;;;27.53;50.42;101098.25;4992026;28;45474;-68
2023/09/07 11:13:07;;;;;;;;;10.75;10.00;;;;;27.63;50.25;101104.56;4996339;28;46643;-68